Time,TemperatureF,DewpointF,PressureIn,WindDirection,WindDirectionDegrees,WindSpeedMPH,WindSpeedGustMPH,Humidity,HourlyPrecipIn,Conditions,Clouds,dailyrainin,SoftwareType,DateUTC
2013-01-20 00:00:00,46.6,36.6,29.91,WSW,248,25.3,25.3,68,0.00,,,0.00,WUHU216HW,2013-01-20 05:00:00,
2013-01-20 00:01:00,46.6,36.6,29.91,WSW,248,25.3,25.3,68,0.00,,,0.00,WUHU216HW,2013-01-20 05:01:00,
2013-01-20 09:44:00,22.7,13.0,30.25,NNW,338,6.3,6.3,66,0.00,,,0.00,WUHU216HW,2013-01-20 14:44:00,
2013-01-20 09:46:00,22.7,13.3,30.25,NNW,338,8.5,8.5,67,0.00,,,0.00,WUHU216HW,2013-01-20 14:46:00,
2013-01-20 09:49:00,22.7,13.3,30.25,NNW,338,8.5,8.5,67,0.00,,,0.00,WUHU216HW,2013-01-20 14:49:00,
2013-01-20 09:54:00,22.7,13.3,30.25,NNW,338,8.5,8.5,67,0.00,,,0.00,WUHU216HW,2013-01-20 14:54:00,
2013-01-20 09:59:00,22.7,12.6,30.25,NNW,338,6.9,6.9,65,0.00,,,0.00,WUHU216HW,2013-01-20 14:59:00,
2013-01-20 10:04:00,22.7,13.0,30.26,NW,315,6.3,8.7,66,0.00,,,0.00,WUHU216HW,2013-01-20 15:04:00,
2013-01-20 10:09:00,22.7,13.0,30.26,North,0,5.6,8.7,66,0.00,,,0.00,WUHU216HW,2013-01-20 15:09:00,
2013-01-20 10:14:00,22.7,13.7,30.26,WNW,293,8.5,11.2,68,0.00,,,0.00,WUHU216HW,2013-01-20 15:14:00,
2013-01-20 10:19:00,23.0,14.4,30.26,WNW,293,8.9,11.2,69,0.00,,,0.00,WUHU216HW,2013-01-20 15:19:00,
2013-01-20 10:24:00,23.0,14.0,30.26,NW,315,9.8,10.3,68,0.00,,,0.00,WUHU216HW,2013-01-20 15:24:00,
2013-01-20 10:29:00,23.0,13.7,30.27,North,0,6.3,10.5,67,0.00,,,0.00,WUHU216HW,2013-01-20 15:29:00,
2013-01-20 10:33:00,23.2,13.9,30.27,NNW,338,7.8,7.8,67,0.00,,,0.00,WUHU216HW,2013-01-20 15:33:00,
2013-01-20 10:34:00,23.2,13.9,30.27,NNW,338,7.8,10.5,67,0.00,,,0.00,WUHU216HW,2013-01-20 15:34:00,
2013-01-20 10:39:00,23.2,13.9,30.27,NNW,338,7.8,10.3,67,0.00,,,0.00,WUHU216HW,2013-01-20 15:39:00,
2013-01-20 10:46:00,23.2,14.2,30.28,NNW,338,2.9,2.9,68,0.00,,,0.00,WUHU216HW,2013-01-20 15:46:00,
2013-01-20 10:51:00,23.2,14.2,30.28,NNW,338,2.9,2.9,68,0.00,,,0.00,WUHU216HW,2013-01-20 15:51:00,
2013-01-20 10:56:00,23.6,13.9,30.28,North,0,4.0,4.0,66,0.00,,,0.00,WUHU216HW,2013-01-20 15:56:00,
2013-01-20 11:01:00,23.4,13.7,30.28,NW,315,6.9,7.4,66,0.00,,,0.00,WUHU216HW,2013-01-20 16:01:00,
2013-01-20 11:06:00,23.2,13.2,30.28,NNW,338,3.8,7.4,65,0.00,,,0.00,WUHU216HW,2013-01-20 16:06:00,
2013-01-20 11:11:00,23.2,13.5,30.28,NNW,338,3.4,4.9,66,0.00,,,0.00,WUHU216HW,2013-01-20 16:11:00,
2013-01-20 11:16:00,23.2,13.5,30.28,NNW,338,3.4,3.4,66,0.00,,,0.00,WUHU216HW,2013-01-20 16:16:00,
2013-01-20 11:21:00,23.6,13.2,30.28,NNW,338,8.5,8.5,64,0.00,,,0.00,WUHU216HW,2013-01-20 16:21:00,
2013-01-20 11:26:00,24.1,13.7,30.27,NNW,338,4.9,8.5,64,0.00,,,0.00,WUHU216HW,2013-01-20 16:26:00,
2013-01-20 11:31:00,24.3,13.5,30.27,NNW,338,3.4,8.1,63,0.00,,,0.00,WUHU216HW,2013-01-20 16:31:00,
2013-01-20 11:36:00,23.9,13.5,30.27,NW,315,7.2,9.6,64,0.00,,,0.00,WUHU216HW,2013-01-20 16:36:00,
2013-01-20 11:41:00,23.6,12.8,30.27,North,0,2.9,9.6,63,0.00,,,0.00,WUHU216HW,2013-01-20 16:41:00,
2013-01-20 11:46:00,23.8,13.3,30.27,NNW,338,3.6,4.7,64,0.00,,,0.00,WUHU216HW,2013-01-20 16:46:00,
2013-01-20 11:51:00,24.3,13.8,30.27,North,0,2.7,3.8,64,0.00,,,0.00,WUHU216HW,2013-01-20 16:51:00,
2013-01-20 11:56:00,24.5,14.0,30.27,North,0,1.8,7.2,64,0.00,,,0.00,WUHU216HW,2013-01-20 16:56:00,
2013-01-20 12:01:00,24.8,13.7,30.26,NNW,338,5.4,7.2,62,0.00,,,0.00,WUHU216HW,2013-01-20 17:01:00,
2013-01-20 12:06:00,24.8,14.3,30.26,North,0,1.8,6.0,64,0.00,,,0.00,WUHU216HW,2013-01-20 17:06:00,
2013-01-20 12:11:00,24.8,13.7,30.26,NW,315,6.3,6.9,62,0.00,,,0.00,WUHU216HW,2013-01-20 17:11:00,
2013-01-20 12:16:00,25.0,14.1,30.26,North,0,2.5,6.9,63,0.00,,,0.00,WUHU216HW,2013-01-20 17:16:00,
2013-01-20 12:21:00,25.6,14.3,30.26,WNW,293,9.4,9.4,62,0.00,,,0.00,WUHU216HW,2013-01-20 17:21:00,
2013-01-20 12:26:00,25.7,14.1,30.26,WNW,293,1.6,9.4,61,0.00,,,0.00,WUHU216HW,2013-01-20 17:26:00,
2013-01-20 12:31:00,25.9,13.5,30.26,North,0,1.8,9.4,59,0.00,,,0.00,WUHU216HW,2013-01-20 17:31:00,
2013-01-20 12:36:00,25.7,13.8,30.26,NNW,338,7.2,7.2,60,0.00,,,0.00,WUHU216HW,2013-01-20 17:36:00,
2013-01-20 12:41:00,26.5,14.8,30.24,North,0,0.4,7.2,61,0.00,,,0.00,WUHU216HW,2013-01-20 17:41:00,
2013-01-20 12:46:00,27.0,13.7,30.24,North,0,2.0,9.2,57,0.00,,,0.00,WUHU216HW,2013-01-20 17:46:00,
2013-01-20 12:51:00,27.0,14.1,30.25,NW,315,4.0,9.2,58,0.00,,,0.00,WUHU216HW,2013-01-20 17:51:00,
2013-01-20 12:56:00,26.8,14.3,30.24,NW,315,5.6,7.6,59,0.00,,,0.00,WUHU216HW,2013-01-20 17:56:00,
2013-01-20 13:01:00,27.4,14.5,30.24,West,270,5.8,5.8,58,0.00,,,0.00,WUHU216HW,2013-01-20 18:01:00,
2013-01-20 13:06:00,27.7,14.1,30.24,NNW,338,6.3,6.3,56,0.00,,,0.00,WUHU216HW,2013-01-20 18:06:00,
2013-01-20 13:11:00,27.9,14.6,30.24,WNW,293,7.4,9.2,57,0.00,,,0.00,WUHU216HW,2013-01-20 18:11:00,
2013-01-20 13:16:00,27.4,13.2,30.24,West,270,6.3,9.2,55,0.00,,,0.00,WUHU216HW,2013-01-20 18:16:00,
2013-01-20 13:21:00,27.2,13.9,30.23,WNW,293,5.4,7.8,57,0.00,,,0.00,WUHU216HW,2013-01-20 18:21:00,
2013-01-20 13:26:00,27.4,13.7,30.23,NW,315,1.8,11.4,56,0.00,,,0.00,WUHU216HW,2013-01-20 18:26:00,
2013-01-20 13:27:00,27.4,14.0,30.23,NNW,338,4.5,4.5,57,0.00,,,0.00,WUHU216HW,2013-01-20 18:27:00,
2013-01-20 13:31:00,27.4,14.0,30.23,NNW,338,4.5,11.4,57,0.00,,,0.00,WUHU216HW,2013-01-20 18:31:00,
2013-01-20 13:36:00,27.4,14.0,30.23,NNW,338,4.5,4.5,57,0.00,,,0.00,WUHU216HW,2013-01-20 18:36:00,
2013-01-20 13:57:00,27.7,13.6,30.21,NW,315,6.3,6.3,55,0.00,,,0.00,WUHU216HW,2013-01-20 18:57:00,
2013-01-20 14:02:00,27.7,13.6,30.21,WNW,293,6.0,7.6,55,0.00,,,0.00,WUHU216HW,2013-01-20 19:02:00,
2013-01-20 14:07:00,27.9,14.6,30.21,NW,315,5.4,10.5,57,0.00,,,0.00,WUHU216HW,2013-01-20 19:07:00,
2013-01-20 14:12:00,27.9,14.6,30.21,WNW,293,4.0,10.5,57,0.00,,,0.00,WUHU216HW,2013-01-20 19:12:00,
2013-01-20 14:17:00,27.7,14.1,30.22,West,270,6.3,8.7,56,0.00,,,0.00,WUHU216HW,2013-01-20 19:17:00,
2013-01-20 14:22:00,28.3,14.6,30.21,WNW,293,7.6,7.6,56,0.00,,,0.00,WUHU216HW,2013-01-20 19:22:00,
2013-01-20 14:27:00,28.1,13.5,30.22,NNW,338,4.7,9.2,54,0.00,,,0.00,WUHU216HW,2013-01-20 19:27:00,
2013-01-20 14:32:00,27.7,14.1,30.22,NW,315,4.7,9.2,56,0.00,,,0.00,WUHU216HW,2013-01-20 19:32:00,
2013-01-20 14:37:00,27.7,14.4,30.22,NNW,338,7.6,8.1,57,0.00,,,0.00,WUHU216HW,2013-01-20 19:37:00,
2013-01-20 14:42:00,27.7,14.9,30.22,NNW,338,3.6,8.1,58,0.00,,,0.00,WUHU216HW,2013-01-20 19:42:00,
2013-01-20 14:47:00,27.9,14.2,30.22,WNW,293,4.5,8.1,56,0.00,,,0.00,WUHU216HW,2013-01-20 19:47:00,
2013-01-20 14:52:00,28.1,14.0,30.22,North,0,5.1,12.3,55,0.00,,,0.00,WUHU216HW,2013-01-20 19:52:00,
2013-01-20 14:57:00,28.1,14.4,30.22,SSW,203,4.9,12.3,56,0.00,,,0.00,WUHU216HW,2013-01-20 19:57:00,
2013-01-20 15:02:00,27.9,13.3,30.22,NNW,338,4.0,9.2,54,0.00,,,0.00,WUHU216HW,2013-01-20 20:02:00,
2013-01-20 15:05:00,27.5,13.4,30.22,NNW,338,2.5,2.5,55,0.00,,,0.00,WUHU216HW,2013-01-20 20:05:00,
2013-01-20 15:07:00,27.5,13.4,30.22,NNW,338,2.5,6.7,55,0.00,,,0.00,WUHU216HW,2013-01-20 20:07:00,
2013-01-20 15:12:00,27.5,13.4,30.22,NNW,338,2.5,6.3,55,0.00,,,0.00,WUHU216HW,2013-01-20 20:12:00,
2013-01-20 16:00:00,27.2,13.9,30.23,NNW,338,6.5,6.5,57,0.00,,,0.00,WUHU216HW,2013-01-20 21:00:00,
2013-01-20 16:05:00,27.2,13.9,30.23,WNW,293,9.6,9.6,57,0.00,,,0.00,WUHU216HW,2013-01-20 21:05:00,
2013-01-20 16:08:00,27.2,14.3,30.23,NW,315,6.9,6.9,58,0.00,,,0.00,WUHU216HW,2013-01-20 21:08:00,
2013-01-20 16:10:00,27.2,14.3,30.23,NW,315,6.9,9.6,58,0.00,,,0.00,WUHU216HW,2013-01-20 21:10:00,
2013-01-20 16:15:00,27.2,14.3,30.23,NW,315,6.9,8.7,58,0.00,,,0.00,WUHU216HW,2013-01-20 21:15:00,
2013-01-20 16:38:00,26.8,14.0,30.23,NW,315,5.1,5.1,58,0.00,,,0.00,WUHU216HW,2013-01-20 21:38:00,
2013-01-20 16:43:00,26.8,14.0,30.23,NW,315,10.1,10.1,58,0.00,,,0.00,WUHU216HW,2013-01-20 21:43:00,
2013-01-20 16:48:00,26.6,13.8,30.24,WNW,293,5.4,10.1,58,0.00,,,0.00,WUHU216HW,2013-01-20 21:48:00,
2013-01-20 16:53:00,26.5,13.1,30.24,North,0,5.4,8.9,57,0.00,,,0.00,WUHU216HW,2013-01-20 21:53:00,
2013-01-20 16:58:00,26.3,13.1,30.24,NNW,338,5.8,9.2,57,0.00,,,0.00,WUHU216HW,2013-01-20 21:58:00,
2013-01-20 17:03:00,26.3,13.4,30.24,NNW,338,4.0,9.2,58,0.00,,,0.00,WUHU216HW,2013-01-20 22:03:00,
2013-01-20 17:08:00,26.3,13.4,30.24,West,270,8.7,8.7,58,0.00,,,0.00,WUHU216HW,2013-01-20 22:08:00,
2013-01-20 17:13:00,26.1,13.2,30.24,NNW,338,4.7,11.0,58,0.00,,,0.00,WUHU216HW,2013-01-20 22:13:00,
2013-01-20 17:18:00,26.1,13.7,30.24,NNW,338,4.0,11.0,59,0.00,,,0.00,WUHU216HW,2013-01-20 22:18:00,
2013-01-20 17:23:00,25.9,13.5,30.24,NW,315,4.5,9.2,59,0.00,,,0.00,WUHU216HW,2013-01-20 22:23:00,
2013-01-20 17:28:00,25.9,14.0,30.24,North,0,2.5,6.3,60,0.00,,,0.00,WUHU216HW,2013-01-20 22:28:00,
2013-01-20 17:33:00,25.9,14.3,30.24,NNW,338,2.2,6.0,61,0.00,,,0.00,WUHU216HW,2013-01-20 22:33:00,
2013-01-20 17:38:00,25.9,14.0,30.24,North,0,3.8,7.6,60,0.00,,,0.00,WUHU216HW,2013-01-20 22:38:00,
2013-01-20 17:43:00,25.7,13.8,30.24,NW,315,2.2,7.6,60,0.00,,,0.00,WUHU216HW,2013-01-20 22:43:00,
2013-01-20 17:48:00,25.7,13.8,30.24,NW,315,2.2,4.9,60,0.00,,,0.00,WUHU216HW,2013-01-20 22:48:00,
2013-01-20 18:00:00,25.6,14.0,30.24,WNW,293,9.4,9.4,61,0.00,,,0.00,WUHU216HW,2013-01-20 23:00:00,
2013-01-20 18:05:00,25.6,14.0,30.24,NW,315,4.7,9.4,61,0.00,,,0.00,WUHU216HW,2013-01-20 23:05:00,
2013-01-20 18:10:00,25.6,14.3,30.24,West,270,4.7,9.4,62,0.00,,,0.00,WUHU216HW,2013-01-20 23:10:00,
2013-01-20 18:15:00,25.6,14.3,30.24,WNW,293,3.4,6.7,62,0.00,,,0.00,WUHU216HW,2013-01-20 23:15:00,
2013-01-20 18:20:00,25.6,14.7,30.24,WNW,293,4.5,6.7,63,0.00,,,0.00,WUHU216HW,2013-01-20 23:20:00,
2013-01-20 18:25:00,25.6,14.0,30.25,WNW,293,7.6,8.7,61,0.00,,,0.00,WUHU216HW,2013-01-20 23:25:00,
2013-01-20 18:30:00,25.4,14.1,30.25,NW,315,8.5,10.5,62,0.00,,,0.00,WUHU216HW,2013-01-20 23:30:00,
2013-01-20 18:35:00,25.2,14.3,30.25,West,270,7.2,10.5,63,0.00,,,0.00,WUHU216HW,2013-01-20 23:35:00,
2013-01-20 18:38:00,25.2,14.3,30.25,WNW,293,6.0,6.0,63,0.00,,,0.00,WUHU216HW,2013-01-20 23:38:00,
2013-01-20 18:40:00,25.2,14.3,30.25,WNW,293,6.0,8.5,63,0.00,,,0.00,WUHU216HW,2013-01-20 23:40:00,
2013-01-20 18:45:00,25.2,14.3,30.25,WNW,293,6.0,8.5,63,0.00,,,0.00,WUHU216HW,2013-01-20 23:45:00,
2013-01-20 19:00:00,25.0,14.1,30.24,NW,315,4.3,4.3,63,0.00,,,0.00,WUHU216HW,2013-01-21 00:00:00,
2013-01-20 19:05:00,24.8,14.0,30.24,WNW,293,8.5,8.5,63,0.00,,,0.00,WUHU216HW,2013-01-21 00:05:00,
2013-01-20 19:10:00,24.8,14.3,30.24,NW,315,5.1,8.5,64,0.00,,,0.00,WUHU216HW,2013-01-21 00:10:00,
2013-01-20 19:15:00,24.8,14.3,30.24,SSW,203,2.5,5.1,64,0.00,,,0.00,WUHU216HW,2013-01-21 00:15:00,
2013-01-20 19:20:00,24.8,14.3,30.24,NW,315,3.4,5.8,64,0.00,,,0.00,WUHU216HW,2013-01-21 00:20:00,
2013-01-20 19:25:00,24.7,14.5,30.24,WNW,293,3.6,5.8,65,0.00,,,0.00,WUHU216HW,2013-01-21 00:25:00,
2013-01-20 19:30:00,24.7,14.5,30.23,WNW,293,5.4,5.4,65,0.00,,,0.00,WUHU216HW,2013-01-21 00:30:00,
2013-01-20 19:35:00,24.5,14.0,30.23,NNW,338,4.5,6.9,64,0.00,,,0.00,WUHU216HW,2013-01-21 00:35:00,
2013-01-20 19:40:00,24.5,14.3,30.23,NW,315,2.5,8.1,65,0.00,,,0.00,WUHU216HW,2013-01-21 00:40:00,
2013-01-20 19:45:00,24.5,14.0,30.23,NNW,338,7.2,8.1,64,0.00,,,0.00,WUHU216HW,2013-01-21 00:45:00,
2013-01-20 19:50:00,24.5,14.0,30.23,NW,315,5.1,7.2,64,0.00,,,0.00,WUHU216HW,2013-01-21 00:50:00,
2013-01-20 19:55:00,24.5,14.0,30.23,NNW,338,2.9,6.0,64,0.00,,,0.00,WUHU216HW,2013-01-21 00:55:00,
2013-01-20 20:00:00,24.5,14.3,30.23,NW,315,2.7,6.0,65,0.00,,,0.00,WUHU216HW,2013-01-21 01:00:00,
2013-01-20 20:05:00,24.5,14.3,30.23,NNW,338,2.2,6.0,65,0.00,,,0.00,WUHU216HW,2013-01-21 01:05:00,
2013-01-20 20:10:00,24.5,14.3,30.23,WNW,293,6.3,6.3,65,0.00,,,0.00,WUHU216HW,2013-01-21 01:10:00,
2013-01-20 20:15:00,24.3,14.5,30.23,West,270,4.9,6.3,66,0.00,,,0.00,WUHU216HW,2013-01-21 01:15:00,
2013-01-20 20:20:00,24.3,14.1,30.23,West,270,8.5,8.5,65,0.00,,,0.00,WUHU216HW,2013-01-21 01:20:00,
2013-01-20 20:25:00,24.3,14.5,30.23,NNW,338,3.4,8.5,66,0.00,,,0.00,WUHU216HW,2013-01-21 01:25:00,
2013-01-20 20:30:00,24.3,14.5,30.23,NNW,338,2.7,6.5,66,0.00,,,0.00,WUHU216HW,2013-01-21 01:30:00,
2013-01-20 20:35:00,24.3,14.5,30.23,WNW,293,2.5,6.0,66,0.00,,,0.00,WUHU216HW,2013-01-21 01:35:00,
2013-01-20 20:40:00,24.3,14.1,30.22,North,0,3.6,6.0,65,0.00,,,0.00,WUHU216HW,2013-01-21 01:40:00,
2013-01-20 20:45:00,24.1,14.0,30.23,NW,315,4.5,6.0,65,0.00,,,0.00,WUHU216HW,2013-01-21 01:45:00,
2013-01-20 20:50:00,24.1,14.3,30.23,NNW,338,2.7,6.9,66,0.00,,,0.00,WUHU216HW,2013-01-21 01:50:00,
2013-01-20 20:55:00,24.1,14.3,30.23,WNW,293,2.7,6.9,66,0.00,,,0.00,WUHU216HW,2013-01-21 01:55:00,
2013-01-20 21:00:00,24.1,14.3,30.22,NW,315,5.4,5.4,66,0.00,,,0.00,WUHU216HW,2013-01-21 02:00:00,
2013-01-20 21:05:00,24.1,14.0,30.22,NNW,338,4.5,5.8,65,0.00,,,0.00,WUHU216HW,2013-01-21 02:05:00,
2013-01-20 21:10:00,24.1,14.3,30.21,NNW,338,3.1,5.8,66,0.00,,,0.00,WUHU216HW,2013-01-21 02:10:00,
2013-01-20 21:15:00,24.1,14.7,30.21,NNW,338,3.6,4.0,67,0.00,,,0.00,WUHU216HW,2013-01-21 02:15:00,
2013-01-20 21:20:00,24.1,14.3,30.21,WNW,293,6.3,6.3,66,0.00,,,0.00,WUHU216HW,2013-01-21 02:20:00,
2013-01-20 21:25:00,24.1,14.3,30.21,NW,315,11.2,11.2,66,0.00,,,0.00,WUHU216HW,2013-01-21 02:25:00,
2013-01-20 21:30:00,24.1,14.3,30.21,North,0,4.3,11.2,66,0.00,,,0.00,WUHU216HW,2013-01-21 02:30:00,
2013-01-20 21:35:00,23.9,14.1,30.21,North,0,4.3,9.2,66,0.00,,,0.00,WUHU216HW,2013-01-21 02:35:00,
2013-01-20 21:40:00,23.9,14.1,30.21,NNW,338,4.5,9.2,66,0.00,,,0.00,WUHU216HW,2013-01-21 02:40:00,
2013-01-20 21:45:00,23.9,14.1,30.22,WNW,293,8.7,8.7,66,0.00,,,0.00,WUHU216HW,2013-01-21 02:45:00,
2013-01-20 21:50:00,23.9,14.1,30.22,West,270,7.6,8.7,66,0.00,,,0.00,WUHU216HW,2013-01-21 02:50:00,
2013-01-20 21:51:00,23.9,14.1,30.21,West,270,6.5,6.5,66,0.00,,,0.00,WUHU216HW,2013-01-21 02:51:00,
2013-01-20 21:55:00,23.9,14.1,30.21,West,270,6.5,8.1,66,0.00,,,0.00,WUHU216HW,2013-01-21 02:55:00,
2013-01-20 22:00:00,23.9,14.1,30.21,West,270,6.5,6.5,66,0.00,,,0.00,WUHU216HW,2013-01-21 03:00:00,